sensor_id;sensor_type;location;lat;lon;timestamp;pressure;altitude;pressure_sealevel;temperature;humidity
57376;BME280;44805;45.048;5.062;2023-04-15T00:00:32;98982.41;;;10.76;100.00
57376;BME280;44805;45.048;5.062;2023-04-15T00:02:58;98972.94;;;10.58;100.00
57376;BME280;44805;45.048;5.062;2023-04-15T00:05:24;98972.91;;;10.67;100.00
57376;BME280;44805;45.048;5.062;2023-04-15T00:07:49;98963.81;;;10.77;100.00
57376;BME280;44805;45.048;5.062;2023-04-15T00:10:30;98968.09;;;10.78;100.00
57376;BME280;44805;45.048;5.062;2023-04-15T00:12:55;98966.31;;;10.71;100.00
57376;BME280;44805;45.048;5.062;2023-04-15T00:15:21;98980.63;;;10.68;100.00
57376;BME280;44805;45.048;5.062;2023-04-15T00:17:48;98978.81;;;10.60;100.00
57376;BME280;44805;45.048;5.062;2023-04-15T00:20:14;98968.50;;;10.51;100.00
57376;BME280;44805;45.048;5.062;2023-04-15T00:22:39;98964.19;;;10.58;100.00
57376;BME280;44805;45.048;5.062;2023-04-15T00:25:04;98965.03;;;10.42;100.00
57376;BME280;44805;45.048;5.062;2023-04-15T00:27:30;98958.09;;;10.57;100.00
57376;BME280;44805;45.048;5.062;2023-04-15T00:29:55;98959.25;;;10.63;100.00
57376;BME280;44805;45.048;5.062;2023-04-15T00:32:21;98957.63;;;10.54;100.00
57376;BME280;44805;45.048;5.062;2023-04-15T00:34:46;98970.13;;;10.52;100.00
57376;BME280;44805;45.048;5.062;2023-04-15T00:37:12;98965.53;;;10.37;100.00
57376;BME280;44805;45.048;5.062;2023-04-15T00:39:37;98959.94;;;10.32;100.00
57376;BME280;44805;45.048;5.062;2023-04-15T00:42:05;98962.56;;;10.32;100.00
57376;BME280;44805;45.048;5.062;2023-04-15T00:44:31;98963.38;;;10.25;100.00
57376;BME280;44805;45.048;5.062;2023-04-15T00:46:57;98963.72;;;10.21;100.00
57376;BME280;44805;45.048;5.062;2023-04-15T00:49:22;98950.56;;;10.30;100.00
57376;BME280;44805;45.048;5.062;2023-04-15T00:51:48;98964.53;;;10.22;100.00
57376;BME280;44805;45.048;5.062;2023-04-15T00:54:14;98968.47;;;10.10;100.00
57376;BME280;44805;45.048;5.062;2023-04-15T00:56:40;98963.41;;;10.08;100.00
57376;BME280;44805;45.048;5.062;2023-04-15T00:59:06;98961.56;;;10.17;100.00
57376;BME280;44805;45.048;5.062;2023-04-15T01:01:32;98964.06;;;10.10;100.00
57376;BME280;44805;45.048;5.062;2023-04-15T01:03:58;98960.59;;;10.10;100.00
57376;BME280;44805;45.048;5.062;2023-04-15T01:06:23;98958.13;;;10.16;100.00
57376;BME280;44805;45.048;5.062;2023-04-15T01:08:49;98956.66;;;10.30;100.00
57376;BME280;44805;45.048;5.062;2023-04-15T01:11:15;98967.00;;;10.40;100.00
57376;BME280;44805;45.048;5.062;2023-04-15T01:13:41;98969.31;;;10.35;100.00
57376;BME280;44805;45.048;5.062;2023-04-15T01:16:07;98961.41;;;10.43;100.00
57376;BME280;44805;45.048;5.062;2023-04-15T01:18:32;98968.69;;;10.41;100.00
57376;BME280;44805;45.048;5.062;2023-04-15T01:20:59;98973.63;;;10.36;99.71
57376;BME280;44805;45.048;5.062;2023-04-15T01:23:24;98977.53;;;10.40;100.00
57376;BME280;44805;45.048;5.062;2023-04-15T01:26:02;98977.06;;;10.36;99.24
57376;BME280;44805;45.048;5.062;2023-04-15T01:28:28;98984.47;;;10.41;98.52
57376;BME280;44805;45.048;5.062;2023-04-15T01:31:06;98985.44;;;10.32;99.82
57376;BME280;44805;45.048;5.062;2023-04-15T01:33:32;98986.56;;;10.46;99.94
57376;BME280;44805;45.048;5.062;2023-04-15T01:35:57;98989.38;;;10.44;99.73
57376;BME280;44805;45.048;5.062;2023-04-15T01:38:22;98982.97;;;10.47;99.36
57376;BME280;44805;45.048;5.062;2023-04-15T01:43:47;98975.53;;;10.67;100.00
57376;BME280;44805;45.048;5.062;2023-04-15T01:46:13;98980.50;;;10.61;98.87
57376;BME280;44805;45.048;5.062;2023-04-15T01:48:38;98981.47;;;10.69;98.79
57376;BME280;44805;45.048;5.062;2023-04-15T01:51:03;98987.38;;;10.71;98.69
57376;BME280;44805;45.048;5.062;2023-04-15T01:53:29;98988.38;;;10.70;99.16
57376;BME280;44805;45.048;5.062;2023-04-15T01:55:54;98988.38;;;10.70;98.90
57376;BME280;44805;45.048;5.062;2023-04-15T01:58:19;98982.75;;;10.73;99.33
57376;BME280;44805;45.048;5.062;2023-04-15T02:00:46;98969.56;;;10.81;98.32
57376;BME280;44805;45.048;5.062;2023-04-15T02:03:11;98971.06;;;10.75;99.90
57376;BME280;44805;45.048;5.062;2023-04-15T02:05:36;98980.44;;;10.78;99.71
57376;BME280;44805;45.048;5.062;2023-04-15T02:08:02;98973.22;;;10.72;98.83
57376;BME280;44805;45.048;5.062;2023-04-15T02:10:27;98968.28;;;10.60;99.16
57376;BME280;44805;45.048;5.062;2023-04-15T02:12:53;98983.13;;;10.61;98.59
57376;BME280;44805;45.048;5.062;2023-04-15T02:15:18;98973.91;;;10.57;99.23
57376;BME280;44805;45.048;5.062;2023-04-15T02:17:44;98969.28;;;10.68;99.65
57376;BME280;44805;45.048;5.062;2023-04-15T02:20:10;98964.34;;;10.64;100.00
57376;BME280;44805;45.048;5.062;2023-04-15T02:22:35;98974.84;;;10.73;100.00
57376;BME280;44805;45.048;5.062;2023-04-15T02:25:01;98970.63;;;10.63;100.00
57376;BME280;44805;45.048;5.062;2023-04-15T02:27:26;98980.50;;;10.53;100.00
57376;BME280;44805;45.048;5.062;2023-04-15T02:29:52;98981.13;;;10.55;100.00
57376;BME280;44805;45.048;5.062;2023-04-15T02:32:18;98973.25;;;10.55;100.00
57376;BME280;44805;45.048;5.062;2023-04-15T02:34:44;98978.50;;;10.63;100.00
57376;BME280;44805;45.048;5.062;2023-04-15T02:37:09;98974.88;;;10.64;100.00
57376;BME280;44805;45.048;5.062;2023-04-15T02:39:35;98977.22;;;10.51;100.00
57376;BME280;44805;45.048;5.062;2023-04-15T02:42:00;98970.97;;;10.36;100.00
57376;BME280;44805;45.048;5.062;2023-04-15T02:44:26;98973.91;;;10.25;100.00
57376;BME280;44805;45.048;5.062;2023-04-15T02:46:52;98961.91;;;10.30;100.00
57376;BME280;44805;45.048;5.062;2023-04-15T02:49:19;98976.88;;;10.30;100.00
57376;BME280;44805;45.048;5.062;2023-04-15T02:51:44;98970.97;;;10.36;100.00
57376;BME280;44805;45.048;5.062;2023-04-15T02:57:07;98968.81;;;10.15;100.00
57376;BME280;44805;45.048;5.062;2023-04-15T02:59:32;98973.25;;;10.22;100.00
57376;BME280;44805;45.048;5.062;2023-04-15T03:01:57;98967.00;;;10.24;100.00
57376;BME280;44805;45.048;5.062;2023-04-15T03:04:26;98964.38;;;10.24;100.00
57376;BME280;44805;45.048;5.062;2023-04-15T03:06:54;98959.13;;;10.15;100.00
57376;BME280;44805;45.048;5.062;2023-04-15T03:09:20;98965.03;;;10.26;100.00
57376;BME280;44805;45.048;5.062;2023-04-15T03:11:45;98968.63;;;10.25;100.00
57376;BME280;44805;45.048;5.062;2023-04-15T03:14:10;98972.09;;;10.17;100.00
57376;BME280;44805;45.048;5.062;2023-04-15T03:16:36;98977.69;;;10.14;100.00
57376;BME280;44805;45.048;5.062;2023-04-15T03:19:01;98971.75;;;10.20;100.00
57376;BME280;44805;45.048;5.062;2023-04-15T03:21:26;98967.19;;;10.30;100.00
57376;BME280;44805;45.048;5.062;2023-04-15T03:23:51;98961.09;;;10.30;100.00
57376;BME280;44805;45.048;5.062;2023-04-15T03:26:27;98959.44;;;10.20;100.00
57376;BME280;44805;45.048;5.062;2023-04-15T03:28:53;98969.63;;;10.07;100.00
57376;BME280;44805;45.048;5.062;2023-04-15T03:31:18;98965.53;;;10.13;100.00
57376;BME280;44805;45.048;5.062;2023-04-15T03:33:43;98969.63;;;9.99;100.00
57376;BME280;44805;45.048;5.062;2023-04-15T03:36:09;98968.94;;;9.72;100.00
57376;BME280;44805;45.048;5.062;2023-04-15T03:38:34;98970.78;;;9.96;100.00
57376;BME280;44805;45.048;5.062;2023-04-15T03:44:02;98983.66;;;9.49;100.00
57376;BME280;44805;45.048;5.062;2023-04-15T03:46:27;98978.59;;;9.64;100.00
57376;BME280;44805;45.048;5.062;2023-04-15T03:48:52;98975.56;;;9.93;100.00
57376;BME280;44805;45.048;5.062;2023-04-15T03:51:18;98994.44;;;10.05;100.00
57376;BME280;44805;45.048;5.062;2023-04-15T03:53:43;98993.78;;;9.94;100.00
57376;BME280;44805;45.048;5.062;2023-04-15T03:56:08;98992.81;;;10.04;100.00
57376;BME280;44805;45.048;5.062;2023-04-15T03:58:34;98984.13;;;10.28;100.00
57376;BME280;44805;45.048;5.062;2023-04-15T04:00:59;98997.94;;;10.30;100.00
57376;BME280;44805;45.048;5.062;2023-04-15T04:03:25;98996.91;;;9.90;100.00
57376;BME280;44805;45.048;5.062;2023-04-15T04:05:51;98992.66;;;10.05;100.00
57376;BME280;44805;45.048;5.062;2023-04-15T04:08:16;98987.38;;;10.21;100.00
57376;BME280;44805;45.048;5.062;2023-04-15T04:13:46;99003.50;;;10.27;100.00
57376;BME280;44805;45.048;5.062;2023-04-15T04:16:11;99008.75;;;10.27;100.00
57376;BME280;44805;45.048;5.062;2023-04-15T04:18:36;99009.47;;;10.37;100.00
57376;BME280;44805;45.048;5.062;2023-04-15T04:21:02;99014.06;;;10.59;100.00
57376;BME280;44805;45.048;5.062;2023-04-15T04:23:27;99004.00;;;10.55;100.00
57376;BME280;44805;45.048;5.062;2023-04-15T04:28:52;99000.56;;;10.54;100.00
57376;BME280;44805;45.048;5.062;2023-04-15T04:31:17;99005.00;;;10.54;100.00
57376;BME280;44805;45.048;5.062;2023-04-15T04:33:42;99007.13;;;10.26;100.00
57376;BME280;44805;45.048;5.062;2023-04-15T04:36:08;99013.91;;;10.28;100.00
57376;BME280;44805;45.048;5.062;2023-04-15T04:38:33;99008.31;;;10.31;100.00
57376;BME280;44805;45.048;5.062;2023-04-15T04:40:59;99009.75;;;10.26;100.00
57376;BME280;44805;45.048;5.062;2023-04-15T04:43:24;99016.00;;;10.25;100.00
57376;BME280;44805;45.048;5.062;2023-04-15T04:45:50;99017.97;;;10.22;100.00
57376;BME280;44805;45.048;5.062;2023-04-15T04:48:15;99017.28;;;10.12;100.00
57376;BME280;44805;45.048;5.062;2023-04-15T04:50:41;99019.28;;;10.18;100.00
57376;BME280;44805;45.048;5.062;2023-04-15T04:53:06;99023.06;;;10.16;100.00
57376;BME280;44805;45.048;5.062;2023-04-15T04:55:31;99035.22;;;10.17;100.00
57376;BME280;44805;45.048;5.062;2023-04-15T04:57:57;99023.44;;;10.29;100.00
57376;BME280;44805;45.048;5.062;2023-04-15T05:00:22;99022.75;;;10.11;100.00
57376;BME280;44805;45.048;5.062;2023-04-15T05:02:47;99026.38;;;10.18;100.00
57376;BME280;44805;45.048;5.062;2023-04-15T05:05:13;99023.88;;;10.16;100.00
57376;BME280;44805;45.048;5.062;2023-04-15T05:07:38;99023.56;;;10.11;100.00
57376;BME280;44805;45.048;5.062;2023-04-15T05:10:04;99022.25;;;10.24;100.00
57376;BME280;44805;45.048;5.062;2023-04-15T05:12:29;99018.16;;;10.13;100.00
57376;BME280;44805;45.048;5.062;2023-04-15T05:14:54;99024.56;;;10.10;100.00
57376;BME280;44805;45.048;5.062;2023-04-15T05:17:20;99026.03;;;10.13;100.00
57376;BME280;44805;45.048;5.062;2023-04-15T05:19:45;99036.88;;;10.18;100.00
57376;BME280;44805;45.048;5.062;2023-04-15T05:22:10;99035.38;;;9.91;100.00
57376;BME280;44805;45.048;5.062;2023-04-15T05:24:35;99043.59;;;10.12;100.00
57376;BME280;44805;45.048;5.062;2023-04-15T05:27:01;99036.56;;;10.21;100.00
57376;BME280;44805;45.048;5.062;2023-04-15T05:29:26;99034.06;;;10.11;100.00
57376;BME280;44805;45.048;5.062;2023-04-15T05:31:52;99042.63;;;10.05;100.00
57376;BME280;44805;45.048;5.062;2023-04-15T05:34:17;99042.44;;;10.15;100.00
57376;BME280;44805;45.048;5.062;2023-04-15T05:36:42;99043.31;;;10.15;100.00
57376;BME280;44805;45.048;5.062;2023-04-15T05:39:07;99038.38;;;10.20;100.00
57376;BME280;44805;45.048;5.062;2023-04-15T05:41:33;99038.34;;;10.12;100.00
57376;BME280;44805;45.048;5.062;2023-04-15T05:43:58;99041.63;;;10.14;100.00
57376;BME280;44805;45.048;5.062;2023-04-15T05:46:23;99036.03;;;10.09;100.00
57376;BME280;44805;45.048;5.062;2023-04-15T05:48:49;99051.78;;;9.85;100.00
57376;BME280;44805;45.048;5.062;2023-04-15T05:51:14;99042.88;;;9.69;100.00
57376;BME280;44805;45.048;5.062;2023-04-15T05:53:40;99055.84;;;9.71;100.00
57376;BME280;44805;45.048;5.062;2023-04-15T05:56:05;99050.47;;;9.81;100.00
57376;BME280;44805;45.048;5.062;2023-04-15T05:58:31;99057.06;;;9.85;100.00
57376;BME280;44805;45.048;5.062;2023-04-15T06:00:56;99060.31;;;9.78;100.00
57376;BME280;44805;45.048;5.062;2023-04-15T06:03:21;99059.84;;;9.99;100.00
57376;BME280;44805;45.048;5.062;2023-04-15T06:05:47;99064.13;;;9.92;100.00
57376;BME280;44805;45.048;5.062;2023-04-15T06:08:13;99065.50;;;10.13;100.00
57376;BME280;44805;45.048;5.062;2023-04-15T06:10:38;99063.06;;;10.36;100.00
57376;BME280;44805;45.048;5.062;2023-04-15T06:13:03;99064.88;;;10.52;100.00
57376;BME280;44805;45.048;5.062;2023-04-15T06:15:29;99061.09;;;10.62;100.00
57376;BME280;44805;45.048;5.062;2023-04-15T06:17:54;99060.94;;;10.72;100.00
57376;BME280;44805;45.048;5.062;2023-04-15T06:20:20;99052.84;;;10.90;100.00
57376;BME280;44805;45.048;5.062;2023-04-15T06:22:45;99061.41;;;10.84;100.00
57376;BME280;44805;45.048;5.062;2023-04-15T06:28:13;99060.06;;;10.88;99.82
57376;BME280;44805;45.048;5.062;2023-04-15T06:30:38;99063.72;;;10.87;99.53
57376;BME280;44805;45.048;5.062;2023-04-15T06:33:04;99069.97;;;10.78;100.00
57376;BME280;44805;45.048;5.062;2023-04-15T06:35:30;99078.53;;;10.80;100.00
57376;BME280;44805;45.048;5.062;2023-04-15T06:37:55;99068.31;;;10.60;100.00
57376;BME280;44805;45.048;5.062;2023-04-15T06:40:20;99077.53;;;10.73;100.00
57376;BME280;44805;45.048;5.062;2023-04-15T06:42:46;99087.75;;;10.92;100.00
57376;BME280;44805;45.048;5.062;2023-04-15T06:45:11;99085.44;;;10.81;98.83
57376;BME280;44805;45.048;5.062;2023-04-15T06:47:36;99088.34;;;11.11;98.76
57376;BME280;44805;45.048;5.062;2023-04-15T06:50:02;99095.97;;;10.97;99.38
57376;BME280;44805;45.048;5.062;2023-04-15T06:52:28;99092.63;;;11.12;99.96
57376;BME280;44805;45.048;5.062;2023-04-15T06:54:53;99098.47;;;11.46;98.01
57376;BME280;44805;45.048;5.062;2023-04-15T06:57:18;99096.72;;;11.70;97.43
57376;BME280;44805;45.048;5.062;2023-04-15T06:59:43;99100.75;;;11.58;96.26
57376;BME280;44805;45.048;5.062;2023-04-15T07:02:09;99102.72;;;11.64;96.12
57376;BME280;44805;45.048;5.062;2023-04-15T07:04:36;99108.94;;;11.71;94.35
57376;BME280;44805;45.048;5.062;2023-04-15T07:07:02;99110.66;;;11.56;94.47
57376;BME280;44805;45.048;5.062;2023-04-15T07:09:27;99120.22;;;11.48;95.50
57376;BME280;44805;45.048;5.062;2023-04-15T07:11:52;99117.69;;;11.07;95.05
57376;BME280;44805;45.048;5.062;2023-04-15T07:14:17;99136.78;;;11.01;97.88
57376;BME280;44805;45.048;5.062;2023-04-15T07:16:43;99152.22;;;10.39;100.00
57376;BME280;44805;45.048;5.062;2023-04-15T07:19:08;99159.50;;;10.61;100.00
57376;BME280;44805;45.048;5.062;2023-04-15T07:21:33;99168.81;;;10.31;100.00
57376;BME280;44805;45.048;5.062;2023-04-15T07:23:59;99163.69;;;10.30;100.00
57376;BME280;44805;45.048;5.062;2023-04-15T07:29:27;99141.38;;;11.16;100.00
57376;BME280;44805;45.048;5.062;2023-04-15T07:31:53;99143.50;;;11.28;100.00
57376;BME280;44805;45.048;5.062;2023-04-15T07:34:18;99144.97;;;11.31;100.00
57376;BME280;44805;45.048;5.062;2023-04-15T07:36:43;99142.34;;;11.06;100.00
57376;BME280;44805;45.048;5.062;2023-04-15T07:39:10;99146.31;;;11.19;100.00
57376;BME280;44805;45.048;5.062;2023-04-15T07:41:36;99154.72;;;11.06;100.00
57376;BME280;44805;45.048;5.062;2023-04-15T07:44:02;99158.00;;;11.08;100.00
57376;BME280;44805;45.048;5.062;2023-04-15T07:46:28;99159.97;;;11.14;98.65
57376;BME280;44805;45.048;5.062;2023-04-15T07:48:53;99164.41;;;11.30;98.60
57376;BME280;44805;45.048;5.062;2023-04-15T07:51:19;99160.47;;;11.01;97.21
57376;BME280;44805;45.048;5.062;2023-04-15T07:53:45;99152.34;;;11.44;95.83
57376;BME280;44805;45.048;5.062;2023-04-15T07:59:14;99165.91;;;11.08;97.44
57376;BME280;44805;45.048;5.062;2023-04-15T08:01:41;99157.81;;;11.26;97.77
57376;BME280;44805;45.048;5.062;2023-04-15T08:04:08;99156.50;;;11.38;98.64
57376;BME280;44805;45.048;5.062;2023-04-15T08:06:33;99170.00;;;11.27;100.00
57376;BME280;44805;45.048;5.062;2023-04-15T08:08:58;99162.44;;;11.40;98.73
57376;BME280;44805;45.048;5.062;2023-04-15T08:11:33;99158.97;;;11.40;84.83
57376;BME280;44805;45.048;5.062;2023-04-15T08:13:58;99173.28;;;11.45;89.48
57376;BME280;44805;45.048;5.062;2023-04-15T08:16:24;99184.34;;;11.24;83.77
57376;BME280;44805;45.048;5.062;2023-04-15T08:18:53;99178.22;;;11.48;83.63
57376;BME280;44805;45.048;5.062;2023-04-15T08:21:18;99184.28;;;11.57;83.45
57376;BME280;44805;45.048;5.062;2023-04-15T08:23:44;99180.28;;;11.86;81.46
57376;BME280;44805;45.048;5.062;2023-04-15T08:26:10;99179.41;;;12.02;77.50
57376;BME280;44805;45.048;5.062;2023-04-15T08:28:39;99188.19;;;12.25;78.94
57376;BME280;44805;45.048;5.062;2023-04-15T08:31:05;99178.78;;;12.54;77.53
57376;BME280;44805;45.048;5.062;2023-04-15T08:33:30;99193.44;;;12.88;78.46
57376;BME280;44805;45.048;5.062;2023-04-15T08:35:55;99193.00;;;12.99;74.17
57376;BME280;44805;45.048;5.062;2023-04-15T08:38:21;99183.47;;;13.51;73.62
57376;BME280;44805;45.048;5.062;2023-04-15T08:40:57;99183.69;;;13.49;70.55
57376;BME280;44805;45.048;5.062;2023-04-15T08:43:23;99179.66;;;13.53;67.63
57376;BME280;44805;45.048;5.062;2023-04-15T08:45:52;99195.97;;;13.42;80.10
57376;BME280;44805;45.048;5.062;2023-04-15T08:48:18;99204.97;;;12.87;80.02
57376;BME280;44805;45.048;5.062;2023-04-15T08:50:44;99206.09;;;12.92;81.93
57376;BME280;44805;45.048;5.062;2023-04-15T08:53:09;99209.69;;;12.99;82.96
57376;BME280;44805;45.048;5.062;2023-04-15T08:55:36;99212.97;;;12.78;79.22
57376;BME280;44805;45.048;5.062;2023-04-15T08:58:03;99212.84;;;12.95;78.94
57376;BME280;44805;45.048;5.062;2023-04-15T09:00:30;99199.44;;;13.19;76.38
57376;BME280;44805;45.048;5.062;2023-04-15T09:02:56;99208.25;;;13.35;76.97
57376;BME280;44805;45.048;5.062;2023-04-15T09:05:22;99199.72;;;13.62;75.67
57376;BME280;44805;45.048;5.062;2023-04-15T09:07:49;99202.22;;;13.64;74.77
57376;BME280;44805;45.048;5.062;2023-04-15T09:10:14;99212.38;;;13.37;73.44
57376;BME280;44805;45.048;5.062;2023-04-15T09:18:45;99216.84;;;12.68;63.62
57376;BME280;44805;45.048;5.062;2023-04-15T09:21:11;99222.53;;;12.79;63.93
57376;BME280;44805;45.048;5.062;2023-04-15T09:23:39;99224.56;;;12.69;67.54
57376;BME280;44805;45.048;5.062;2023-04-15T09:26:06;99230.34;;;12.73;68.59
57376;BME280;44805;45.048;5.062;2023-04-15T09:28:32;99227.63;;;12.58;66.60
57376;BME280;44805;45.048;5.062;2023-04-15T09:31:00;99228.34;;;12.52;58.91
57376;BME280;44805;45.048;5.062;2023-04-15T09:33:26;99229.31;;;13.28;56.74
57376;BME280;44805;45.048;5.062;2023-04-15T09:36:25;99246.28;;;13.72;53.52
57376;BME280;44805;45.048;5.062;2023-04-15T09:38:56;99247.78;;;13.66;55.36
57376;BME280;44805;45.048;5.062;2023-04-15T09:44:25;99255.75;;;13.28;55.53
57376;BME280;44805;45.048;5.062;2023-04-15T09:46:51;99270.66;;;12.98;56.01
57376;BME280;44805;45.048;5.062;2023-04-15T09:49:16;99274.38;;;12.80;55.83
57376;BME280;44805;45.048;5.062;2023-04-15T09:51:42;99271.44;;;12.75;56.79
57376;BME280;44805;45.048;5.062;2023-04-15T09:54:08;99282.00;;;12.75;56.31
57376;BME280;44805;45.048;5.062;2023-04-15T09:56:34;99275.78;;;12.68;56.14
57376;BME280;44805;45.048;5.062;2023-04-15T09:59:01;99275.13;;;12.66;57.18
57376;BME280;44805;45.048;5.062;2023-04-15T10:01:27;99278.09;;;12.63;57.29
57376;BME280;44805;45.048;5.062;2023-04-15T10:03:53;99279.63;;;12.57;56.55
57376;BME280;44805;45.048;5.062;2023-04-15T10:06:20;99283.44;;;12.55;57.00
57376;BME280;44805;45.048;5.062;2023-04-15T10:08:47;99283.34;;;12.71;57.48
57376;BME280;44805;45.048;5.062;2023-04-15T10:17:12;99292.09;;;12.72;57.63
57376;BME280;44805;45.048;5.062;2023-04-15T10:19:40;99291.91;;;12.73;60.59
57376;BME280;44805;45.048;5.062;2023-04-15T10:22:06;99297.81;;;12.52;58.72
57376;BME280;44805;45.048;5.062;2023-04-15T10:24:32;99289.44;;;13.03;59.13
57376;BME280;44805;45.048;5.062;2023-04-15T10:26:58;99289.50;;;13.18;59.26
57376;BME280;44805;45.048;5.062;2023-04-15T10:29:24;99294.50;;;13.59;56.26
57376;BME280;44805;45.048;5.062;2023-04-15T10:31:51;99284.25;;;14.38;57.97
57376;BME280;44805;45.048;5.062;2023-04-15T10:34:18;99287.53;;;14.10;54.03
57376;BME280;44805;45.048;5.062;2023-04-15T10:36:44;99272.09;;;14.29;54.79
57376;BME280;44805;45.048;5.062;2023-04-15T10:42:05;99275.75;;;13.98;52.55
57376;BME280;44805;45.048;5.062;2023-04-15T10:44:31;99272.94;;;14.15;52.58
57376;BME280;44805;45.048;5.062;2023-04-15T10:46:56;99266.03;;;14.50;52.45
57376;BME280;44805;45.048;5.062;2023-04-15T10:49:25;99265.44;;;14.03;53.79
57376;BME280;44805;45.048;5.062;2023-04-15T10:51:51;99261.13;;;14.32;54.70
57376;BME280;44805;45.048;5.062;2023-04-15T10:56:49;99274.28;;;13.81;53.23
57376;BME280;44805;45.048;5.062;2023-04-15T10:59:15;99278.03;;;13.72;56.95
57376;BME280;44805;45.048;5.062;2023-04-15T11:01:51;99283.38;;;13.63;60.36
57376;BME280;44805;45.048;5.062;2023-04-15T11:07:05;99292.03;;;13.11;60.08
57376;BME280;44805;45.048;5.062;2023-04-15T11:09:31;99293.97;;;12.63;60.69
57376;BME280;44805;45.048;5.062;2023-04-15T11:21:07;99323.03;;;12.55;64.50
57376;BME280;44805;45.048;5.062;2023-04-15T11:23:40;99323.00;;;12.63;63.29
57376;BME280;44805;45.048;5.062;2023-04-15T11:29:16;99312.66;;;12.53;64.50
57376;BME280;44805;45.048;5.062;2023-04-15T11:31:41;99311.47;;;12.56;62.27
57376;BME280;44805;45.048;5.062;2023-04-15T11:34:13;99321.31;;;12.70;63.55
57376;BME280;44805;45.048;5.062;2023-04-15T11:36:46;99320.09;;;12.50;59.19
57376;BME280;44805;45.048;5.062;2023-04-15T11:39:12;99320.25;;;12.48;59.15
57376;BME280;44805;45.048;5.062;2023-04-15T11:44:47;99317.16;;;13.07;57.87
57376;BME280;44805;45.048;5.062;2023-04-15T11:47:24;99322.19;;;13.48;57.31
57376;BME280;44805;45.048;5.062;2023-04-15T11:49:50;99312.63;;;13.47;54.24
57376;BME280;44805;45.048;5.062;2023-04-15T11:52:15;99333.22;;;12.97;54.06
57376;BME280;44805;45.048;5.062;2023-04-15T11:54:41;99324.66;;;13.50;54.11
57376;BME280;44805;45.048;5.062;2023-04-15T12:03:16;99328.22;;;13.80;53.69
57376;BME280;44805;45.048;5.062;2023-04-15T12:08:46;99353.56;;;13.74;53.18
57376;BME280;44805;45.048;5.062;2023-04-15T12:11:12;99337.28;;;13.62;52.86
57376;BME280;44805;45.048;5.062;2023-04-15T12:13:37;99344.09;;;13.80;53.85
57376;BME280;44805;45.048;5.062;2023-04-15T12:16:03;99338.59;;;13.43;53.32
57376;BME280;44805;45.048;5.062;2023-04-15T12:18:28;99349.63;;;13.70;53.95
57376;BME280;44805;45.048;5.062;2023-04-15T12:20:54;99350.50;;;13.62;54.58
57376;BME280;44805;45.048;5.062;2023-04-15T12:23:19;99349.22;;;13.04;56.06
57376;BME280;44805;45.048;5.062;2023-04-15T12:25:50;99359.03;;;12.95;55.08
57376;BME280;44805;45.048;5.062;2023-04-15T12:37:24;99386.47;;;13.17;55.75
57376;BME280;44805;45.048;5.062;2023-04-15T12:39:59;99387.41;;;12.62;55.47
57376;BME280;44805;45.048;5.062;2023-04-15T12:48:30;99405.75;;;12.47;57.63
57376;BME280;44805;45.048;5.062;2023-04-15T12:50:55;99412.22;;;12.28;55.90
57376;BME280;44805;45.048;5.062;2023-04-15T12:53:21;99427.75;;;11.99;56.83
57376;BME280;44805;45.048;5.062;2023-04-15T12:55:47;99412.25;;;11.95;56.70
57376;BME280;44805;45.048;5.062;2023-04-15T13:01:15;99418.47;;;12.35;56.59
57376;BME280;44805;45.048;5.062;2023-04-15T13:03:40;99428.06;;;12.36;56.64
57376;BME280;44805;45.048;5.062;2023-04-15T13:06:05;99424.09;;;12.32;57.76
57376;BME280;44805;45.048;5.062;2023-04-15T13:08:31;99424.38;;;12.62;57.62
57376;BME280;44805;45.048;5.062;2023-04-15T13:10:56;99430.44;;;12.71;56.46
57376;BME280;44805;45.048;5.062;2023-04-15T13:13:21;99428.50;;;12.56;55.24
57376;BME280;44805;45.048;5.062;2023-04-15T13:15:47;99431.03;;;12.17;56.14
57376;BME280;44805;45.048;5.062;2023-04-15T13:18:12;99434.28;;;12.60;56.36
57376;BME280;44805;45.048;5.062;2023-04-15T13:20:38;99447.31;;;12.53;55.89
57376;BME280;44805;45.048;5.062;2023-04-15T13:23:03;99453.78;;;12.43;55.99
57376;BME280;44805;45.048;5.062;2023-04-15T13:25:28;99453.44;;;12.46;56.54
57376;BME280;44805;45.048;5.062;2023-04-15T13:27:58;99451.78;;;12.53;57.11
57376;BME280;44805;45.048;5.062;2023-04-15T13:30:25;99458.91;;;12.44;57.02
57376;BME280;44805;45.048;5.062;2023-04-15T13:32:51;99457.75;;;12.47;56.48
57376;BME280;44805;45.048;5.062;2023-04-15T13:35:18;99470.25;;;12.61;56.70
57376;BME280;44805;45.048;5.062;2023-04-15T13:37:46;99453.97;;;12.08;57.50
57376;BME280;44805;45.048;5.062;2023-04-15T13:40:12;99484.50;;;12.27;56.67
57376;BME280;44805;45.048;5.062;2023-04-15T13:42:49;99468.97;;;12.00;57.58
57376;BME280;44805;45.048;5.062;2023-04-15T13:45:29;99487.78;;;12.13;58.23
57376;BME280;44805;45.048;5.062;2023-04-15T13:48:18;99482.16;;;12.00;58.56
57376;BME280;44805;45.048;5.062;2023-04-15T13:51:20;99471.94;;;11.97;58.25
57376;BME280;44805;45.048;5.062;2023-04-15T13:53:51;99463.53;;;12.09;59.21
57376;BME280;44805;45.048;5.062;2023-04-15T13:56:17;99465.84;;;12.12;58.73
57376;BME280;44805;45.048;5.062;2023-04-15T13:58:42;99473.91;;;11.94;59.69
57376;BME280;44805;45.048;5.062;2023-04-15T14:01:08;99477.84;;;12.56;58.93
57376;BME280;44805;45.048;5.062;2023-04-15T14:03:33;99473.59;;;12.30;58.55
57376;BME280;44805;45.048;5.062;2023-04-15T14:06:02;99473.59;;;12.14;58.96
57376;BME280;44805;45.048;5.062;2023-04-15T14:08:37;99483.16;;;12.07;59.13
57376;BME280;44805;45.048;5.062;2023-04-15T14:16:55;99472.63;;;12.07;60.34
57376;BME280;44805;45.048;5.062;2023-04-15T14:19:42;99476.88;;;12.16;60.85
57376;BME280;44805;45.048;5.062;2023-04-15T14:53:05;99525.38;;;12.56;60.80
57376;BME280;44805;45.048;5.062;2023-04-15T14:55:39;99526.53;;;12.21;61.64
57376;BME280;44805;45.048;5.062;2023-04-15T14:58:05;99527.53;;;12.11;61.18